createdAt,value
2018-08-30T00:01:31.481Z,654.63
2018-08-30T00:04:00.043Z,638.60
2018-08-30T00:06:28.561Z,617.50
2018-08-30T00:08:57.099Z,613.83
2018-08-30T00:11:25.611Z,604.37
2018-08-30T00:13:54.132Z,596.43
2018-08-30T00:16:22.679Z,599.03
2018-08-30T00:18:51.189Z,630.13
2018-08-30T00:21:19.791Z,584.47
2018-08-30T00:23:48.315Z,615.03
2018-08-30T00:26:16.817Z,586.10
2018-08-30T00:28:45.344Z,587.47
2018-08-30T00:31:13.887Z,583.00
2018-08-30T00:33:42.378Z,596.87
2018-08-30T00:36:10.932Z,567.33
2018-08-30T00:38:39.407Z,590.90
2018-08-30T00:41:07.943Z,561.03
2018-08-30T00:43:36.536Z,582.63
2018-08-30T00:46:05.121Z,556.87
2018-08-30T00:48:33.591Z,597.97
2018-08-30T00:51:02.117Z,578.20
2018-08-30T00:53:30.681Z,555.00
2018-08-30T00:55:59.178Z,526.87
2018-08-30T00:58:27.698Z,543.93
2018-08-30T01:00:56.202Z,546.43
2018-08-30T01:03:24.716Z,558.03
2018-08-30T01:05:53.239Z,550.87
2018-08-30T01:08:21.732Z,550.90
2018-08-30T01:10:50.299Z,564.33
2018-08-30T01:13:18.777Z,560.90
2018-08-30T01:15:47.315Z,564.53
2018-08-30T01:18:15.831Z,555.93
2018-08-30T01:20:44.342Z,550.97
2018-08-30T01:23:12.906Z,545.93
2018-08-30T01:25:41.459Z,560.33
2018-08-30T01:28:09.931Z,568.63
2018-08-30T01:30:38.444Z,553.33
2018-08-30T01:33:06.963Z,539.37
2018-08-30T01:35:35.499Z,531.20
2018-08-30T01:38:03.990Z,544.23
2018-08-30T01:40:32.501Z,521.80
2018-08-30T01:43:01.027Z,541.53
2018-08-30T01:45:29.568Z,521.33
2018-08-30T01:47:58.094Z,540.37
2018-08-30T01:50:26.639Z,551.63
2018-08-30T01:52:55.119Z,552.47
2018-08-30T01:55:23.626Z,550.10
2018-08-30T01:57:52.157Z,537.00
2018-08-30T02:00:20.639Z,551.13
2018-08-30T02:02:49.168Z,556.43
2018-08-30T02:05:17.895Z,545.67
2018-08-30T02:07:46.399Z,560.87
2018-08-30T02:10:14.896Z,545.17
2018-08-30T02:12:43.431Z,534.10
2018-08-30T02:15:11.900Z,562.93
2018-08-30T02:17:40.446Z,566.53
2018-08-30T02:20:08.952Z,544.33
2018-08-30T02:22:37.465Z,560.53
2018-08-30T02:25:06.054Z,564.67
2018-08-30T02:27:34.575Z,548.77
2018-08-30T02:30:03.149Z,546.20
2018-08-30T02:32:31.779Z,534.57
2018-08-30T02:35:00.292Z,549.23
2018-08-30T02:37:28.770Z,546.33
2018-08-30T02:39:57.285Z,534.77
2018-08-30T02:42:25.763Z,542.40
2018-08-30T02:44:54.267Z,519.97
2018-08-30T02:47:22.804Z,527.93
2018-08-30T02:49:51.343Z,527.27
2018-08-30T02:52:19.809Z,514.07
2018-08-30T02:54:48.262Z,529.10
2018-08-30T02:57:16.803Z,526.57
2018-08-30T02:59:45.323Z,536.47
2018-08-30T03:02:13.829Z,560.03
2018-08-30T03:04:42.286Z,554.30
2018-08-30T03:07:11.128Z,578.90
2018-08-30T03:09:39.652Z,534.93
2018-08-30T03:12:08.132Z,574.30
2018-08-30T03:14:36.787Z,562.47
2018-08-30T03:17:05.356Z,562.10
2018-08-30T03:19:33.884Z,546.57
2018-08-30T03:22:02.423Z,550.27
2018-08-30T03:24:30.936Z,542.63
2018-08-30T03:26:59.434Z,545.70
2018-08-30T03:29:28.004Z,558.20
2018-08-30T03:31:56.488Z,550.57
2018-08-30T03:34:25.001Z,531.70
2018-08-30T03:36:53.464Z,521.07
2018-08-30T03:39:21.977Z,519.10
2018-08-30T03:41:50.463Z,521.03
2018-08-30T03:44:19.135Z,486.87
2018-08-30T03:46:47.737Z,515.67
2018-08-30T03:49:16.243Z,488.70
2018-08-30T03:51:44.723Z,476.27
2018-08-30T03:54:13.261Z,477.83
2018-08-30T03:56:41.790Z,489.30
2018-08-30T03:59:10.286Z,448.73
2018-08-30T04:01:38.750Z,470.90
2018-08-30T04:04:07.369Z,460.47
2018-08-30T04:06:35.960Z,455.57
2018-08-30T04:09:06.612Z,450.97
2018-08-30T04:11:35.124Z,468.70
2018-08-30T04:14:03.650Z,475.17
2018-08-30T04:16:32.187Z,468.60
2018-08-30T04:19:06.073Z,479.87
2018-08-30T04:21:35.317Z,495.03
2018-08-30T04:24:05.318Z,470.60
2018-08-30T04:26:33.804Z,468.57
2018-08-30T04:29:02.934Z,470.50
2018-08-30T04:31:31.536Z,472.97
2018-08-30T04:34:00.077Z,493.73
2018-08-30T04:36:28.551Z,499.17
2018-08-30T04:38:58.045Z,502.57
2018-08-30T04:41:26.808Z,521.13
2018-08-30T04:43:55.308Z,517.60
2018-08-30T04:46:23.860Z,499.17
2018-08-30T04:48:52.404Z,504.67
2018-08-30T04:51:20.969Z,506.90
2018-08-30T04:53:49.484Z,487.90
2018-08-30T04:56:17.996Z,480.03
2018-08-30T04:58:46.505Z,514.13
2018-08-30T05:01:15.015Z,515.17
2018-08-30T05:03:43.638Z,490.97
2018-08-30T05:06:12.285Z,507.37
2018-08-30T05:08:40.801Z,514.03
2018-08-30T05:11:09.395Z,509.60
2018-08-30T05:13:37.922Z,533.47
2018-08-30T05:16:06.480Z,550.53
2018-08-30T05:18:34.939Z,552.23
2018-08-30T05:21:03.494Z,550.33
2018-08-30T05:23:31.962Z,553.47
2018-08-30T05:26:00.556Z,568.03
2018-08-30T05:28:29.115Z,571.87
2018-08-30T05:30:58.079Z,587.17
2018-08-30T05:33:26.583Z,584.83
2018-08-30T05:35:55.104Z,583.43
2018-08-30T05:38:23.656Z,556.97
2018-08-30T05:40:52.215Z,570.63
2018-08-30T05:43:20.785Z,564.93
2018-08-30T05:45:49.409Z,562.57
2018-08-30T05:48:17.920Z,557.73
2018-08-30T05:50:46.433Z,576.83
2018-08-30T05:53:15.018Z,578.67
2018-08-30T05:55:43.778Z,584.03
2018-08-30T05:58:12.279Z,583.03
2018-08-30T06:00:40.988Z,593.83
2018-08-30T06:03:09.499Z,614.53
2018-08-30T06:05:38.007Z,613.17
2018-08-30T06:08:06.516Z,620.87
2018-08-30T06:10:35.083Z,599.87
2018-08-30T06:13:03.697Z,591.03
2018-08-30T06:15:32.199Z,619.57
2018-08-30T06:18:00.788Z,623.73
2018-08-30T06:20:29.485Z,627.67
2018-08-30T06:22:57.986Z,600.57
2018-08-30T06:25:26.472Z,596.27
2018-08-30T06:27:55.021Z,616.77
2018-08-30T06:30:23.518Z,628.53
2018-08-30T06:32:52.043Z,571.53
2018-08-30T06:35:20.594Z,483.13
2018-08-30T06:37:49.152Z,474.33
2018-08-30T06:40:17.732Z,462.67
2018-08-30T06:42:46.246Z,472.93
2018-08-30T06:45:14.748Z,432.13
2018-08-30T06:47:43.327Z,416.53
2018-08-30T06:50:11.791Z,417.63
2018-08-30T06:52:40.329Z,422.40
2018-08-30T06:55:08.872Z,356.30
2018-08-30T06:57:37.397Z,345.70
2018-08-30T07:00:06.332Z,322.03
2018-08-30T07:02:34.873Z,314.50
2018-08-30T07:05:03.422Z,290.10
2018-08-30T07:07:31.997Z,269.80
2018-08-30T07:10:00.542Z,195.47
2018-08-30T07:12:29.073Z,208.03
2018-08-30T07:14:57.674Z,191.70
2018-08-30T07:17:26.115Z,200.73
2018-08-30T07:19:54.571Z,176.43
2018-08-30T07:22:23.348Z,163.80
2018-08-30T07:24:51.824Z,146.67
2018-08-30T07:27:20.366Z,139.17
2018-08-30T07:29:48.871Z,120.17
2018-08-30T07:32:17.494Z,155.93
2018-08-30T07:34:46.303Z,168.07
2018-08-30T07:37:14.715Z,238.83
2018-08-30T07:39:43.263Z,264.90
2018-08-30T07:42:11.741Z,271.70
2018-08-30T07:44:40.289Z,280.67
2018-08-30T07:47:08.800Z,302.83
2018-08-30T07:49:37.327Z,298.30
2018-08-30T07:52:05.828Z,289.47
2018-08-30T07:54:34.367Z,271.70
2018-08-30T07:57:02.934Z,256.73
2018-08-30T07:59:31.383Z,227.37
2018-08-30T08:01:59.896Z,249.20
2018-08-30T08:04:28.383Z,155.20
2018-08-30T08:06:56.939Z,142.33
2018-08-30T08:09:25.440Z,86.87
2018-08-30T08:11:53.922Z,69.67
2018-08-30T08:14:22.435Z,85.23
2018-08-30T08:16:50.937Z,77.80
2018-08-30T08:19:19.451Z,85.67
2018-08-30T08:21:47.967Z,91.17
2018-08-30T08:24:16.435Z,72.03
2018-08-30T08:26:44.950Z,86.47
2018-08-30T08:29:13.508Z,81.30
2018-08-30T08:31:41.999Z,74.87
2018-08-30T08:34:10.513Z,79.93
2018-08-30T08:36:39.012Z,89.43
2018-08-30T08:39:07.559Z,119.67
2018-08-30T08:41:36.083Z,95.27
2018-08-30T08:44:04.610Z,110.97
2018-08-30T08:46:33.280Z,160.47
2018-08-30T08:49:01.780Z,126.57
2018-08-30T08:51:30.434Z,126.73
2018-08-30T08:53:58.912Z,63.90
2018-08-30T08:56:27.427Z,43.00
2018-08-30T08:58:55.986Z,46.67
2018-08-30T09:01:24.497Z,137.17
2018-08-30T09:03:52.983Z,239.10
2018-08-30T09:06:21.523Z,201.07
2018-08-30T09:08:50.008Z,158.90
2018-08-30T09:11:18.537Z,210.73
2018-08-30T09:13:47.063Z,207.67
2018-08-30T09:16:15.563Z,219.90
2018-08-30T09:18:44.105Z,202.23
2018-08-30T09:21:12.644Z,266.93
2018-08-30T09:23:41.159Z,207.17
2018-08-30T09:26:09.671Z,141.13
2018-08-30T09:28:38.191Z,146.23
2018-08-30T09:31:06.752Z,123.30
2018-08-30T09:33:35.251Z,86.80
2018-08-30T09:36:03.779Z,80.37
2018-08-30T09:38:32.278Z,85.27
2018-08-30T09:41:00.746Z,127.43
2018-08-30T09:43:29.235Z,95.57
2018-08-30T09:45:57.727Z,104.20
2018-08-30T09:48:26.231Z,175.67
2018-08-30T09:50:54.702Z,202.93
2018-08-30T09:53:23.217Z,206.87
2018-08-30T09:55:51.731Z,223.57
2018-08-30T09:58:20.239Z,243.23
2018-08-30T10:00:54.103Z,192.80
2018-08-30T10:03:22.643Z,179.07
2018-08-30T10:05:51.172Z,191.23
2018-08-30T10:08:19.664Z,243.43
2018-08-30T10:10:48.183Z,266.27
2018-08-30T10:13:16.908Z,308.47
2018-08-30T10:15:45.453Z,352.77
2018-08-30T10:18:13.942Z,317.17
2018-08-30T10:20:42.455Z,328.73
2018-08-30T10:23:10.932Z,316.23
2018-08-30T10:25:39.472Z,348.57
2018-08-30T10:28:07.966Z,277.63
2018-08-30T10:30:36.498Z,184.13
2018-08-30T10:33:05.244Z,76.43
2018-08-30T10:35:33.784Z,30.80
2018-08-30T10:38:02.268Z,38.03
2018-08-30T10:40:30.768Z,69.90
2018-08-30T10:42:59.358Z,156.23
2018-08-30T10:45:27.773Z,148.60
2018-08-30T10:47:56.320Z,128.23
2018-08-30T10:50:24.861Z,128.53
2018-08-30T10:52:53.577Z,129.67
2018-08-30T10:55:22.133Z,143.77
2018-08-30T10:57:50.621Z,79.73
2018-08-30T11:00:19.176Z,110.67
2018-08-30T11:02:47.747Z,121.73
2018-08-30T11:05:16.325Z,66.10
2018-08-30T11:07:44.868Z,78.23
2018-08-30T11:10:13.433Z,83.57
2018-08-30T11:12:41.965Z,104.43
2018-08-30T11:15:10.495Z,139.13
2018-08-30T11:17:39.012Z,167.33
2018-08-30T11:20:07.561Z,108.10
2018-08-30T11:22:36.117Z,99.03
2018-08-30T11:25:04.692Z,74.33
2018-08-30T11:27:33.194Z,82.37
2018-08-30T11:30:02.992Z,62.90
2018-08-30T11:32:31.533Z,54.43
2018-08-30T11:35:00.074Z,97.00
2018-08-30T11:37:28.638Z,89.53
2018-08-30T11:39:57.135Z,144.43
2018-08-30T11:42:25.657Z,237.87
2018-08-30T11:44:54.216Z,264.30
2018-08-30T11:47:22.741Z,287.70
2018-08-30T11:49:51.210Z,325.70
2018-08-30T11:52:19.906Z,352.57
2018-08-30T11:54:48.392Z,329.40
2018-08-30T11:57:16.888Z,328.53
2018-08-30T11:59:45.424Z,307.13
2018-08-30T12:02:13.947Z,281.13
2018-08-30T12:04:42.522Z,192.77
2018-08-30T12:07:11.020Z,107.77
2018-08-30T12:09:39.638Z,101.63
2018-08-30T12:12:08.168Z,52.63
2018-08-30T12:14:36.691Z,65.33
2018-08-30T12:17:05.317Z,70.53
2018-08-30T12:19:33.900Z,71.07
2018-08-30T12:22:02.384Z,59.30
2018-08-30T12:24:30.860Z,33.27
2018-08-30T12:26:59.468Z,66.30
2018-08-30T12:29:28.653Z,47.30
2018-08-30T12:31:57.277Z,42.80
2018-08-30T12:34:25.947Z,159.00
2018-08-30T12:36:54.464Z,179.93
2018-08-30T12:39:22.939Z,97.67
2018-08-30T12:41:51.700Z,189.53
2018-08-30T12:44:20.211Z,87.43
2018-08-30T12:46:48.792Z,170.83
2018-08-30T12:49:17.337Z,340.80
2018-08-30T12:51:45.973Z,450.00
2018-08-30T12:54:14.555Z,461.17
2018-08-30T12:56:43.116Z,592.33
2018-08-30T12:59:16.498Z,553.53
2018-08-30T13:01:45.494Z,445.60
2018-08-30T13:04:14.333Z,726.70
2018-08-30T13:06:45.812Z,799.63
2018-08-30T13:09:15.814Z,767.13
2018-08-30T13:11:44.148Z,776.50
2018-08-30T13:14:12.701Z,776.00
2018-08-30T13:16:41.660Z,728.67
2018-08-30T13:19:10.395Z,710.10
2018-08-30T13:21:38.827Z,794.73
2018-08-30T13:24:07.468Z,790.10
2018-08-30T13:26:35.912Z,746.60
2018-08-30T13:29:04.529Z,783.00
2018-08-30T13:31:33.076Z,776.23
2018-08-30T13:34:02.420Z,787.67
2018-08-30T13:36:31.710Z,757.17
2018-08-30T13:39:00.492Z,768.30
2018-08-30T13:41:29.137Z,725.20
2018-08-30T13:43:57.731Z,782.17
2018-08-30T13:46:26.335Z,690.87
2018-08-30T13:48:54.946Z,706.53
2018-08-30T13:51:23.629Z,543.10
2018-08-30T13:53:51.976Z,574.03
2018-08-30T13:56:20.710Z,545.80
2018-08-30T13:58:49.452Z,441.53
2018-08-30T14:01:18.273Z,409.80
2018-08-30T14:03:46.533Z,405.53
2018-08-30T14:06:15.034Z,460.93
2018-08-30T14:08:43.605Z,603.50
2018-08-30T14:11:12.224Z,579.07
2018-08-30T14:13:40.709Z,551.03
2018-08-30T14:16:09.131Z,586.30
2018-08-30T14:18:37.553Z,533.83
2018-08-30T14:21:06.052Z,613.63
2018-08-30T14:23:34.662Z,536.93
2018-08-30T14:26:03.185Z,489.00
2018-08-30T14:28:31.828Z,578.77
2018-08-30T14:31:00.406Z,617.30
2018-08-30T14:33:28.984Z,785.90
2018-08-30T14:35:57.446Z,779.90
2018-08-30T14:38:26.011Z,793.17
2018-08-30T14:40:54.537Z,801.97
2018-08-30T14:43:23.127Z,785.77
2018-08-30T14:45:51.652Z,800.27
2018-08-30T14:48:20.250Z,777.67
2018-08-30T14:50:48.926Z,792.50
2018-08-30T14:53:17.602Z,732.93
2018-08-30T14:55:46.021Z,772.20
2018-08-30T14:58:14.634Z,777.70
2018-08-30T15:00:43.162Z,782.43
2018-08-30T15:03:11.709Z,763.33
2018-08-30T15:05:40.324Z,760.77
2018-08-30T15:08:08.798Z,770.93
2018-08-30T15:10:37.291Z,782.53
2018-08-30T15:13:06.142Z,759.70
2018-08-30T15:15:34.647Z,780.63
2018-08-30T15:18:03.262Z,761.73
2018-08-30T15:20:32.068Z,774.87
2018-08-30T15:23:00.605Z,765.50
2018-08-30T15:25:29.146Z,784.87
2018-08-30T15:27:57.628Z,712.17
2018-08-30T15:30:26.193Z,751.00
2018-08-30T15:32:54.737Z,737.93
2018-08-30T15:35:23.359Z,712.63
2018-08-30T15:37:51.780Z,699.20
2018-08-30T15:40:20.290Z,726.70
2018-08-30T15:42:48.817Z,743.07
2018-08-30T15:45:17.299Z,716.23
2018-08-30T15:47:45.804Z,723.73
2018-08-30T15:50:14.408Z,700.20
2018-08-30T15:52:42.939Z,729.03
2018-08-30T15:55:11.468Z,718.53
2018-08-30T15:57:40.041Z,731.57
2018-08-30T16:00:08.979Z,760.43
2018-08-30T16:02:37.468Z,756.43
2018-08-30T16:05:06.065Z,720.90
2018-08-30T16:07:34.583Z,705.17
2018-08-30T16:10:03.167Z,769.30
2018-08-30T16:12:31.697Z,714.80
2018-08-30T16:15:00.185Z,652.13
2018-08-30T16:17:28.795Z,639.60
2018-08-30T16:19:57.302Z,611.40
2018-08-30T16:22:35.734Z,583.77
2018-08-30T16:25:04.232Z,570.43
2018-08-30T16:27:39.061Z,605.93
2018-08-30T16:30:07.692Z,648.67
2018-08-30T16:32:36.179Z,718.27
2018-08-30T16:35:04.752Z,746.20
2018-08-30T16:37:33.208Z,727.73
2018-08-30T16:40:01.836Z,704.17
2018-08-30T16:42:30.312Z,744.27
2018-08-30T16:44:59.689Z,735.53
2018-08-30T16:47:28.221Z,674.20
2018-08-30T16:49:56.713Z,571.17
2018-08-30T16:52:25.232Z,460.17
2018-08-30T16:54:53.836Z,402.30
2018-08-30T16:57:23.620Z,356.07
2018-08-30T16:59:52.417Z,425.23
2018-08-30T17:02:21.101Z,338.90
2018-08-30T17:04:49.636Z,300.57
2018-08-30T17:07:18.448Z,330.27
2018-08-30T17:09:46.968Z,311.70
2018-08-30T17:12:15.607Z,291.93
2018-08-30T17:14:44.129Z,274.60
2018-08-30T17:17:12.824Z,309.00
2018-08-30T17:19:41.209Z,387.47
2018-08-30T17:22:09.770Z,430.63
2018-08-30T17:24:38.305Z,394.17
2018-08-30T17:27:06.837Z,421.40
2018-08-30T17:29:35.340Z,469.80
2018-08-30T17:32:03.887Z,552.43
2018-08-30T17:34:32.400Z,513.57
2018-08-30T17:37:00.996Z,561.57
2018-08-30T17:39:29.789Z,571.23
2018-08-30T17:41:58.333Z,620.00
2018-08-30T17:44:26.819Z,560.93
2018-08-30T17:46:55.361Z,536.20
2018-08-30T17:49:23.841Z,533.00
2018-08-30T17:51:52.448Z,485.90
2018-08-30T17:54:20.969Z,487.97
2018-08-30T17:56:49.567Z,462.73
2018-08-30T17:59:19.557Z,493.13
2018-08-30T18:01:49.127Z,497.17
2018-08-30T18:04:17.870Z,542.90
2018-08-30T18:06:46.500Z,602.43
2018-08-30T18:09:15.151Z,630.07
2018-08-30T18:11:43.668Z,641.07
2018-08-30T18:14:15.073Z,651.97
2018-08-30T18:16:43.732Z,623.00
2018-08-30T18:19:12.262Z,589.07
2018-08-30T18:21:40.845Z,542.87
2018-08-30T18:24:09.398Z,426.53
2018-08-30T18:26:37.906Z,347.97
2018-08-30T18:29:06.577Z,318.07
2018-08-30T18:31:35.089Z,269.63
2018-08-30T18:34:03.618Z,192.23
2018-08-30T18:36:32.101Z,144.13
2018-08-30T18:39:00.620Z,99.80
2018-08-30T18:41:29.104Z,61.00
2018-08-30T18:43:57.612Z,38.70
2018-08-30T18:46:26.142Z,25.80
2018-08-30T18:48:54.653Z,21.27
2018-08-30T18:51:23.125Z,15.10
2018-08-30T18:53:51.600Z,15.40
2018-08-30T18:56:20.121Z,23.40
2018-08-30T18:58:48.636Z,36.03
2018-08-30T19:01:17.159Z,58.23
2018-08-30T19:03:45.638Z,82.30
2018-08-30T19:06:14.153Z,103.90
2018-08-30T19:08:42.876Z,120.37
2018-08-30T19:11:11.477Z,134.07
2018-08-30T19:13:39.993Z,134.73
2018-08-30T19:16:13.957Z,124.93
2018-08-30T19:18:47.705Z,120.70
2018-08-30T19:21:16.212Z,117.40
2018-08-30T19:23:44.713Z,122.27
2018-08-30T19:26:13.224Z,116.70
2018-08-30T19:28:41.692Z,119.57
2018-08-30T19:31:10.221Z,132.17
2018-08-30T19:33:38.711Z,143.80
2018-08-30T19:36:12.668Z,142.47
2018-08-30T19:38:41.204Z,144.50
2018-08-30T19:41:14.924Z,153.47
2018-08-30T19:43:43.386Z,161.30
2018-08-30T19:46:11.941Z,160.93
2018-08-30T19:48:40.474Z,159.27
2018-08-30T19:51:09.019Z,163.23
2018-08-30T19:53:37.560Z,172.87
2018-08-30T19:56:06.368Z,163.67
2018-08-30T19:58:35.020Z,168.73
2018-08-30T20:01:03.554Z,177.93
2018-08-30T20:03:32.169Z,181.20
2018-08-30T20:06:00.792Z,187.50
2018-08-30T20:08:29.461Z,194.27
2018-08-30T20:10:58.005Z,175.23
2018-08-30T20:13:26.512Z,171.23
2018-08-30T20:15:55.649Z,170.93
2018-08-30T20:18:24.165Z,187.03
2018-08-30T20:20:52.734Z,173.23
2018-08-30T20:23:21.328Z,187.37
2018-08-30T20:25:49.960Z,194.13
2018-08-30T20:28:18.556Z,193.13
2018-08-30T20:30:47.104Z,190.67
2018-08-30T20:33:15.659Z,171.10
2018-08-30T20:35:44.238Z,150.93
2018-08-30T20:38:12.748Z,102.57
2018-08-30T20:40:41.288Z,81.70
2018-08-30T20:43:09.769Z,75.10
2018-08-30T20:45:38.340Z,64.87
2018-08-30T20:48:06.949Z,68.33
2018-08-30T20:50:35.457Z,82.33
2018-08-30T20:53:04.428Z,98.80
2018-08-30T20:55:32.928Z,100.33
2018-08-30T20:58:01.411Z,79.83
2018-08-30T21:00:29.970Z,70.93
2018-08-30T21:02:58.542Z,72.43
2018-08-30T21:05:27.073Z,65.53
2018-08-30T21:07:55.615Z,58.90
2018-08-30T21:10:24.343Z,66.03
2018-08-30T21:12:53.318Z,52.67
2018-08-30T21:15:22.939Z,55.80
2018-08-30T21:17:57.516Z,54.20
2018-08-30T21:20:26.790Z,48.30
2018-08-30T21:22:56.699Z,47.57
2018-08-30T21:25:26.194Z,42.97
2018-08-30T21:27:54.795Z,37.77
2018-08-30T21:30:24.358Z,35.63
2018-08-30T21:32:54.120Z,29.83
2018-08-30T21:35:23.212Z,27.93
2018-08-30T21:37:52.588Z,28.60
2018-08-30T21:40:21.121Z,23.73
2018-08-30T21:42:51.303Z,20.97
2018-08-30T21:45:19.856Z,27.97
2018-08-30T21:47:48.367Z,41.17
2018-08-30T21:50:16.860Z,29.90
2018-08-30T21:52:46.501Z,29.17
2018-08-30T21:55:16.443Z,28.50
2018-08-30T21:57:44.979Z,27.80
2018-08-30T22:00:14.677Z,27.10
2018-08-30T22:02:43.769Z,26.10
2018-08-30T22:05:12.557Z,24.63
2018-08-30T22:07:41.060Z,17.43
2018-08-30T22:10:10.209Z,17.20
2018-08-30T22:12:38.730Z,15.97
2018-08-30T22:15:07.234Z,13.97
2018-08-30T22:17:35.841Z,13.73
2018-08-30T22:20:04.653Z,15.10
2018-08-30T22:22:33.381Z,15.03
2018-08-30T22:25:01.903Z,14.87
2018-08-30T22:27:30.545Z,15.17
2018-08-30T22:29:59.050Z,14.83
2018-08-30T22:32:27.588Z,17.90
2018-08-30T22:34:56.120Z,25.90
2018-08-30T22:37:24.603Z,30.00
2018-08-30T22:39:53.157Z,57.77
2018-08-30T22:42:21.681Z,77.30
2018-08-30T22:44:50.164Z,91.70
2018-08-30T22:47:18.685Z,100.77
2018-08-30T22:49:47.348Z,104.77
2018-08-30T22:52:15.901Z,117.87
2018-08-30T22:54:44.422Z,117.90
2018-08-30T22:57:12.947Z,133.00
2018-08-30T22:59:41.493Z,124.93
2018-08-30T23:02:09.979Z,123.23
2018-08-30T23:04:38.538Z,117.57
2018-08-30T23:07:07.033Z,106.03
2018-08-30T23:09:35.587Z,93.57
2018-08-30T23:12:04.094Z,86.83
2018-08-30T23:14:32.631Z,76.97
2018-08-30T23:17:01.186Z,69.40
2018-08-30T23:19:29.744Z,64.67
2018-08-30T23:21:58.301Z,66.57
2018-08-30T23:24:26.843Z,57.80
2018-08-30T23:26:55.369Z,55.57
2018-08-30T23:29:23.842Z,45.03
2018-08-30T23:31:52.355Z,43.67
2018-08-30T23:34:20.858Z,55.53
2018-08-30T23:36:49.372Z,45.17
2018-08-30T23:39:17.856Z,48.20
2018-08-30T23:41:46.377Z,68.73
2018-08-30T23:44:14.897Z,85.40
2018-08-30T23:46:43.358Z,100.13
2018-08-30T23:49:11.867Z,122.37
2018-08-30T23:51:40.364Z,169.87
2018-08-30T23:54:08.884Z,208.90
2018-08-30T23:56:37.400Z,205.90
2018-08-30T23:59:17.172Z,225.33
